Forney's Hourly Summary for Thursday, July 5, 2018
Hour Temp
(f)
RH
(%)
Solar Rad.
(MJ/m2)
Rainfall
(in)
Wind
(mph)
7/5/2018 12:00 AM 78 71 0 0 2.71
7/5/2018 1:00 AM 76 72 0 0 0.76
7/5/2018 2:00 AM 75 75 0 0 0.05
7/5/2018 3:00 AM 74 79 0 0 0
7/5/2018 4:00 AM 73 81 0 0 0.07
7/5/2018 5:00 AM 73 83 0 0 0.35
7/5/2018 6:00 AM 72 84 0 0 0
7/5/2018 7:00 AM 72 85 0.03 0 0.09
7/5/2018 8:00 AM 75 77 0.41 0 0.17
7/5/2018 9:00 AM 78 65 0.99 0 0.83
7/5/2018 10:00 AM 81 60 1.79 0 1.49
7/5/2018 11:00 AM 84 54 2.32 0 1.63
7/5/2018 12:00 PM 87 51 2.61 0 2.44
7/5/2018 1:00 PM 89 49 2.95 0 3.61
7/5/2018 2:00 PM 90 47 2.77 0 3.4
7/5/2018 3:00 PM 93 41 2.45 0 3.17
7/5/2018 4:00 PM 94 41 2.18 0 3.08
7/5/2018 5:00 PM 95 38 2.09 0 3.7
7/5/2018 6:00 PM 96 36 1.72 0 4.2
7/5/2018 7:00 PM 94 37 0.56 0 4.67
7/5/2018 8:00 PM 82 56 0.12 0.04 5.34
7/5/2018 9:00 PM 83 64 0.04 0 3.04
7/5/2018 10:00 PM 83 64 0 0 2.66
7/5/2018 11:00 PM 81 67 0 0 1.97
Data Summary 82 61 23.03 0.04 2.06